createdAt,value
2023-04-13T00:02:27.829Z,100.00
2023-04-13T00:05:16.179Z,100.00
2023-04-13T00:08:02.906Z,100.00
2023-04-13T00:10:46.278Z,100.00
2023-04-13T00:13:32.590Z,100.00
2023-04-13T00:16:14.129Z,100.00
2023-04-13T00:18:54.251Z,100.00
2023-04-13T00:21:42.029Z,100.00
2023-04-13T00:24:23.091Z,100.00
2023-04-13T00:27:03.118Z,100.00
2023-04-13T00:29:52.337Z,100.00
2023-04-13T00:32:28.656Z,100.00
2023-04-13T00:35:16.860Z,100.00
2023-04-13T00:37:55.644Z,100.00
2023-04-13T00:40:44.955Z,100.00
2023-04-13T00:43:31.250Z,100.00
2023-04-13T00:46:07.155Z,100.00
2023-04-13T00:48:49.089Z,100.00
2023-04-13T00:51:33.115Z,100.00
2023-04-13T00:54:11.306Z,100.00
2023-04-13T00:56:58.965Z,100.00
2023-04-13T00:59:42.727Z,100.00
2023-04-13T01:02:29.938Z,100.00
2023-04-13T01:05:18.488Z,100.00
2023-04-13T01:08:25.285Z,100.00
2023-04-13T01:11:09.830Z,100.00
2023-04-13T01:14:06.069Z,100.00
2023-04-13T01:16:46.479Z,100.00
2023-04-13T01:19:47.222Z,100.00
2023-04-13T01:22:28.331Z,100.00
2023-04-13T01:25:13.867Z,100.00
2023-04-13T01:28:03.734Z,100.00
2023-04-13T01:30:43.865Z,100.00
2023-04-13T01:33:33.638Z,100.00
2023-04-13T01:36:18.339Z,100.00
2023-04-13T01:38:59.179Z,100.00
2023-04-13T01:41:42.899Z,100.00
2023-04-13T01:44:42.506Z,100.00
2023-04-13T01:47:25.773Z,100.00
2023-04-13T01:50:25.980Z,100.00
2023-04-13T01:53:40.746Z,100.00
2023-04-13T01:56:23.205Z,100.00
2023-04-13T01:59:16.758Z,100.00
2023-04-13T02:02:03.392Z,100.00
2023-04-13T02:04:45.450Z,100.00
2023-04-13T02:07:29.209Z,100.00
2023-04-13T02:10:06.217Z,100.00
2023-04-13T02:12:51.843Z,100.00
2023-04-13T02:15:37.938Z,100.00
2023-04-13T02:18:26.697Z,100.00
2023-04-13T02:21:17.950Z,100.00
2023-04-13T02:24:03.373Z,100.00
2023-04-13T02:26:47.072Z,100.00
2023-04-13T02:29:33.482Z,100.00
2023-04-13T02:32:36.928Z,100.00
2023-04-13T02:35:14.095Z,100.00
2023-04-13T02:37:54.467Z,100.00
2023-04-13T02:40:35.424Z,98.20
2023-04-13T02:43:15.136Z,97.63
2023-04-13T02:46:04.731Z,96.20
2023-04-13T02:48:48.988Z,95.16
2023-04-13T02:51:35.668Z,91.32
2023-04-13T02:54:28.758Z,90.93
2023-04-13T02:57:15.788Z,90.38
2023-04-13T02:59:53.329Z,91.93
2023-04-13T03:02:34.028Z,89.82
2023-04-13T03:05:20.006Z,89.36
2023-04-13T03:08:06.348Z,88.93
2023-04-13T03:10:49.590Z,89.71
2023-04-13T03:13:33.993Z,89.09
2023-04-13T03:16:17.774Z,87.70
2023-04-13T03:18:59.446Z,87.62
2023-04-13T03:21:51.087Z,89.02
2023-04-13T03:24:35.817Z,89.57
2023-04-13T03:27:22.913Z,88.31
2023-04-13T03:30:11.878Z,89.91
2023-04-13T03:33:02.161Z,87.25
2023-04-13T03:35:52.125Z,87.58
2023-04-13T03:38:48.074Z,88.29
2023-04-13T03:41:31.045Z,87.21
2023-04-13T03:44:12.691Z,87.50
2023-04-13T03:46:51.453Z,84.74
2023-04-13T03:49:43.600Z,87.08
2023-04-13T03:52:29.925Z,86.38
2023-04-13T03:55:24.388Z,85.64
2023-04-13T03:58:16.967Z,85.90
2023-04-13T04:00:58.542Z,87.15
2023-04-13T04:03:49.569Z,85.95
2023-04-13T04:06:40.330Z,85.71
2023-04-13T04:09:33.078Z,85.25
2023-04-13T04:12:19.953Z,85.92
2023-04-13T04:15:09.561Z,85.53
2023-04-13T04:17:54.104Z,85.69
2023-04-13T04:20:41.447Z,85.72
2023-04-13T04:23:28.344Z,85.07
2023-04-13T04:26:18.016Z,85.45
2023-04-13T04:29:06.947Z,84.28
2023-04-13T04:32:03.616Z,84.20
2023-04-13T04:34:41.586Z,84.65
2023-04-13T04:37:32.085Z,84.14
2023-04-13T04:40:20.414Z,83.19
2023-04-13T04:42:58.404Z,82.03
2023-04-13T04:45:53.746Z,83.73
2023-04-13T04:48:39.289Z,84.11
2023-04-13T04:51:21.051Z,83.39
2023-04-13T04:54:04.327Z,82.94
2023-04-13T04:56:50.949Z,83.75
2023-04-13T04:59:37.319Z,83.38
2023-04-13T05:02:20.326Z,84.64
2023-04-13T05:05:04.337Z,84.51
2023-04-13T05:07:44.978Z,86.61
2023-04-13T05:10:28.488Z,84.68
2023-04-13T05:13:13.777Z,85.28
2023-04-13T05:16:01.925Z,84.69
2023-04-13T05:18:52.236Z,85.38
2023-04-13T05:21:48.138Z,83.81
2023-04-13T05:24:30.082Z,83.61
2023-04-13T05:27:26.114Z,83.31
2023-04-13T05:30:09.897Z,84.22
2023-04-13T05:32:53.442Z,83.96
2023-04-13T05:35:39.420Z,83.05
2023-04-13T05:38:26.459Z,80.93
2023-04-13T05:41:13.897Z,79.32
2023-04-13T05:43:58.525Z,78.16
2023-04-13T05:46:45.214Z,75.74
2023-04-13T05:49:34.450Z,72.69
2023-04-13T05:52:16.059Z,72.79
2023-04-13T05:55:01.430Z,70.95
2023-04-13T05:57:44.082Z,70.97
2023-04-13T06:00:29.957Z,68.59
2023-04-13T06:03:26.020Z,67.32
2023-04-13T06:06:12.263Z,62.92
2023-04-13T06:09:00.678Z,66.34
2023-04-13T06:11:45.555Z,67.71
2023-04-13T06:14:36.949Z,65.82
2023-04-13T06:17:27.807Z,63.71
2023-04-13T06:20:15.656Z,62.04
2023-04-13T06:22:59.700Z,60.59
2023-04-13T06:25:55.479Z,61.66
2023-04-13T06:28:50.206Z,61.76
2023-04-13T06:31:52.090Z,62.58
2023-04-13T06:34:49.701Z,62.26
2023-04-13T06:37:37.484Z,63.25
2023-04-13T06:40:16.047Z,63.90
2023-04-13T06:43:13.424Z,60.79
2023-04-13T06:46:14.506Z,62.45
2023-04-13T06:49:06.373Z,60.57
2023-04-13T06:51:46.778Z,60.71
2023-04-13T06:54:25.356Z,60.70
2023-04-13T06:57:21.878Z,61.79
2023-04-13T07:00:25.946Z,61.96
2023-04-13T07:03:09.560Z,61.80
2023-04-13T07:05:50.842Z,56.78
2023-04-13T07:08:37.126Z,53.22
2023-04-13T07:11:21.551Z,53.20
2023-04-13T07:14:06.123Z,51.30
2023-04-13T07:16:49.844Z,55.92
2023-04-13T07:19:35.805Z,55.21
2023-04-13T07:22:19.160Z,53.31
2023-04-13T07:25:08.347Z,51.55
2023-04-13T07:27:52.284Z,51.34
2023-04-13T07:30:38.072Z,49.04
2023-04-13T07:33:31.236Z,51.06
2023-04-13T07:36:21.639Z,48.83
2023-04-13T07:39:09.007Z,46.71
2023-04-13T07:42:02.891Z,47.46
2023-04-13T07:45:05.526Z,47.73
2023-04-13T07:48:03.209Z,46.34
2023-04-13T07:50:45.939Z,48.72
2023-04-13T07:53:52.360Z,49.26
2023-04-13T07:56:35.306Z,45.48
2023-04-13T07:59:16.993Z,47.51
2023-04-13T08:02:06.419Z,45.34
2023-04-13T08:04:52.654Z,46.86
2023-04-13T08:07:44.961Z,47.17
2023-04-13T08:10:30.469Z,44.66
2023-04-13T08:13:17.530Z,42.87
2023-04-13T08:15:56.079Z,44.62
2023-04-13T08:18:45.303Z,43.45
2023-04-13T08:21:30.863Z,41.80
2023-04-13T08:24:26.725Z,44.54
2023-04-13T08:27:07.428Z,44.39
2023-04-13T08:29:52.062Z,43.64
2023-04-13T08:32:42.179Z,43.05
2023-04-13T08:35:23.322Z,42.24
2023-04-13T08:38:05.101Z,41.57
2023-04-13T08:40:53.096Z,40.74
2023-04-13T08:43:44.756Z,39.72
2023-04-13T08:46:25.177Z,40.91
2023-04-13T08:49:11.139Z,41.58
2023-04-13T08:52:21.607Z,41.91
2023-04-13T08:55:05.898Z,42.61
2023-04-13T08:57:44.957Z,42.59
2023-04-13T09:00:36.631Z,41.72
2023-04-13T09:03:24.528Z,40.22
2023-04-13T09:06:15.641Z,41.93
2023-04-13T09:09:02.138Z,39.52
2023-04-13T09:11:43.947Z,40.51
2023-04-13T09:14:26.161Z,40.25
2023-04-13T09:17:09.985Z,39.42
2023-04-13T09:19:50.297Z,42.98
2023-04-13T09:22:41.802Z,40.45
2023-04-13T09:25:32.167Z,40.26
2023-04-13T09:28:32.566Z,40.87
2023-04-13T09:31:19.423Z,39.42
2023-04-13T09:37:17.690Z,40.90
2023-04-13T09:40:13.423Z,41.34
2023-04-13T09:43:08.213Z,40.10
2023-04-13T09:45:46.513Z,38.72
2023-04-13T09:48:30.421Z,39.45
2023-04-13T09:51:14.645Z,40.16
2023-04-13T09:54:02.245Z,40.69
2023-04-13T09:57:00.664Z,38.23
2023-04-13T09:59:50.086Z,37.38
2023-04-13T10:02:37.364Z,36.83
2023-04-13T10:05:28.886Z,37.70
2023-04-13T10:08:12.517Z,34.92
2023-04-13T10:10:55.478Z,34.50
2023-04-13T10:13:51.130Z,38.80
2023-04-13T10:16:49.604Z,34.77
2023-04-13T10:19:39.175Z,32.89
2023-04-13T10:22:20.873Z,33.79
2023-04-13T10:25:01.786Z,34.97
2023-04-13T10:27:46.688Z,35.62
2023-04-13T10:30:46.643Z,35.17
2023-04-13T10:33:36.302Z,37.08
2023-04-13T10:36:31.945Z,35.22
2023-04-13T10:39:14.244Z,34.97
2023-04-13T10:42:09.277Z,33.84
2023-04-13T10:44:54.008Z,35.70
2023-04-13T10:47:45.033Z,33.80
2023-04-13T10:50:27.091Z,35.05
2023-04-13T10:53:14.528Z,33.84
2023-04-13T10:55:56.109Z,35.21
2023-04-13T10:58:39.832Z,35.34
2023-04-13T11:01:22.847Z,35.55
2023-04-13T11:04:16.820Z,36.39
2023-04-13T11:07:04.575Z,37.13
2023-04-13T11:09:44.898Z,34.76
2023-04-13T11:12:56.434Z,36.57
2023-04-13T11:15:47.381Z,35.15
2023-04-13T11:18:37.391Z,33.58
2023-04-13T11:21:28.117Z,36.09
2023-04-13T11:24:18.615Z,36.26
2023-04-13T11:27:08.474Z,34.61
2023-04-13T11:29:48.949Z,36.34
2023-04-13T11:32:31.949Z,37.41
2023-04-13T11:35:31.130Z,35.02
2023-04-13T11:38:24.107Z,36.53
2023-04-13T11:41:17.052Z,36.23
2023-04-13T11:43:59.580Z,34.21
2023-04-13T11:46:47.540Z,35.86
2023-04-13T11:49:30.674Z,36.67
2023-04-13T11:52:17.113Z,37.24
2023-04-13T11:55:14.718Z,36.00
2023-04-13T11:57:59.525Z,36.38
2023-04-13T12:00:47.426Z,37.89
2023-04-13T12:03:47.004Z,38.00
2023-04-13T12:06:31.917Z,39.74
2023-04-13T12:09:17.658Z,37.96
2023-04-13T12:12:39.263Z,38.45
2023-04-13T12:15:26.529Z,38.88
2023-04-13T12:18:19.632Z,39.65
2023-04-13T12:21:07.261Z,39.95
2023-04-13T12:24:00.636Z,39.71
2023-04-13T12:29:41.219Z,40.68
2023-04-13T12:32:30.716Z,41.74
2023-04-13T12:35:17.241Z,38.60
2023-04-13T12:38:03.548Z,43.39
2023-04-13T12:40:50.515Z,42.20
2023-04-13T12:43:31.504Z,40.36
2023-04-13T12:46:20.021Z,38.77
2023-04-13T12:49:03.853Z,38.99
2023-04-13T12:51:47.053Z,40.66
2023-04-13T12:54:32.740Z,39.17
2023-04-13T12:57:18.010Z,39.33
2023-04-13T13:00:02.128Z,38.44
2023-04-13T13:02:52.140Z,39.70
2023-04-13T13:05:34.818Z,38.04
2023-04-13T13:08:14.754Z,38.92
2023-04-13T13:11:01.359Z,36.21
2023-04-13T13:13:53.747Z,38.40
2023-04-13T13:16:44.806Z,35.73
2023-04-13T13:19:28.960Z,39.13
2023-04-13T13:22:12.081Z,35.94
2023-04-13T13:24:53.646Z,40.25
2023-04-13T13:28:10.301Z,37.18
2023-04-13T13:30:46.311Z,38.32
2023-04-13T13:33:32.977Z,37.71
2023-04-13T13:36:16.500Z,39.17
2023-04-13T13:39:07.968Z,39.35
2023-04-13T13:41:54.375Z,40.58
2023-04-13T13:44:38.630Z,41.04
2023-04-13T13:47:21.864Z,39.88
2023-04-13T13:50:08.757Z,40.71
2023-04-13T13:53:04.941Z,38.74
2023-04-13T13:55:52.064Z,39.90
2023-04-13T13:58:42.042Z,39.99
2023-04-13T14:01:25.674Z,38.85
2023-04-13T14:04:17.021Z,40.16
2023-04-13T14:07:00.405Z,40.20
2023-04-13T14:09:41.317Z,39.93
2023-04-13T14:12:20.802Z,40.71
2023-04-13T14:15:15.771Z,42.86
2023-04-13T14:18:10.484Z,41.24
2023-04-13T14:20:57.641Z,39.21
2023-04-13T14:23:45.934Z,39.75
2023-04-13T14:26:22.232Z,40.94
2023-04-13T14:29:05.394Z,42.32
2023-04-13T14:31:49.171Z,40.88
2023-04-13T14:34:36.032Z,40.53
2023-04-13T14:37:24.076Z,44.79
2023-04-13T14:40:14.228Z,39.20
2023-04-13T14:42:58.908Z,40.72
2023-04-13T14:45:43.218Z,43.12
2023-04-13T14:48:23.137Z,42.65
2023-04-13T14:51:04.123Z,41.19
2023-04-13T14:53:54.166Z,42.73
2023-04-13T14:56:39.060Z,42.04
2023-04-13T14:59:22.133Z,41.03
2023-04-13T15:02:03.181Z,43.95
2023-04-13T15:04:49.325Z,40.84
2023-04-13T15:07:32.389Z,42.41
2023-04-13T15:10:08.704Z,42.84
2023-04-13T15:13:06.668Z,42.11
2023-04-13T15:16:01.580Z,43.90
2023-04-13T15:18:49.833Z,43.21
2023-04-13T15:21:29.152Z,43.89
2023-04-13T15:24:14.730Z,45.29
2023-04-13T15:27:03.432Z,44.18
2023-04-13T15:29:40.859Z,45.71
2023-04-13T15:32:30.243Z,43.76
2023-04-13T15:35:07.533Z,45.69
2023-04-13T15:37:47.089Z,46.28
2023-04-13T15:40:33.454Z,45.97
2023-04-13T15:43:29.502Z,45.20
2023-04-13T15:46:14.385Z,45.95
2023-04-13T15:49:03.288Z,48.12
2023-04-13T15:51:51.409Z,48.40
2023-04-13T15:54:47.105Z,48.32
2023-04-13T15:57:34.975Z,47.69
2023-04-13T16:00:26.819Z,48.67
2023-04-13T16:03:10.942Z,47.66
2023-04-13T16:05:56.846Z,48.53
2023-04-13T16:08:42.135Z,49.09
2023-04-13T16:11:30.005Z,47.90
2023-04-13T16:14:12.562Z,47.41
2023-04-13T16:17:02.198Z,46.17
2023-04-13T16:19:47.402Z,48.82
2023-04-13T16:22:30.194Z,50.58
2023-04-13T16:25:12.318Z,51.16
2023-04-13T16:27:50.148Z,53.08
2023-04-13T16:30:31.926Z,52.89
2023-04-13T16:33:11.469Z,51.18
2023-04-13T16:36:00.901Z,51.11
2023-04-13T16:38:52.683Z,50.46
2023-04-13T16:41:51.141Z,50.23
2023-04-13T16:44:29.315Z,51.15
2023-04-13T16:47:18.912Z,51.82
2023-04-13T16:50:35.454Z,52.00
2023-04-13T16:53:44.233Z,54.11
2023-04-13T16:56:27.386Z,54.31
2023-04-13T16:59:19.094Z,57.71
2023-04-13T17:02:01.261Z,59.38
2023-04-13T17:04:46.903Z,65.49
2023-04-13T17:07:23.902Z,72.81
2023-04-13T17:10:13.086Z,90.73
2023-04-13T17:12:57.005Z,89.46
2023-04-13T17:15:38.025Z,92.07
2023-04-13T17:18:30.038Z,95.36
2023-04-13T17:21:18.283Z,96.49
2023-04-13T17:24:05.078Z,93.86
2023-04-13T17:26:49.352Z,95.34
2023-04-13T17:29:36.274Z,97.92
2023-04-13T17:32:22.596Z,93.89
2023-04-13T17:35:03.150Z,89.30
2023-04-13T17:37:53.867Z,90.39
2023-04-13T17:40:37.847Z,92.57
2023-04-13T17:43:21.529Z,90.80
2023-04-13T17:46:04.159Z,91.42
2023-04-13T17:48:48.305Z,94.26
2023-04-13T17:51:34.468Z,93.75
2023-04-13T17:54:16.017Z,95.18
2023-04-13T17:56:52.203Z,97.41
2023-04-13T17:59:41.975Z,99.14
2023-04-13T18:02:27.298Z,98.55
2023-04-13T18:05:15.501Z,98.41
2023-04-13T18:07:56.346Z,100.00
2023-04-13T18:10:35.025Z,100.00
2023-04-13T18:13:22.539Z,100.00
2023-04-13T18:16:07.719Z,100.00
2023-04-13T18:18:52.128Z,100.00
2023-04-13T18:21:38.095Z,100.00
2023-04-13T18:24:21.384Z,100.00
2023-04-13T18:27:08.658Z,100.00
2023-04-13T18:29:53.661Z,100.00
2023-04-13T18:32:40.500Z,100.00
2023-04-13T18:35:36.570Z,98.94
2023-04-13T18:38:17.944Z,100.00
2023-04-13T18:40:56.490Z,100.00
2023-04-13T18:43:45.508Z,100.00
2023-04-13T18:46:32.805Z,100.00
2023-04-13T18:49:24.576Z,100.00
2023-04-13T18:51:59.993Z,100.00
2023-04-13T18:54:36.849Z,100.00
2023-04-13T18:57:17.989Z,100.00
2023-04-13T19:00:06.447Z,100.00
2023-04-13T19:02:54.165Z,100.00
2023-04-13T19:05:48.862Z,100.00
2023-04-13T19:08:27.290Z,100.00
2023-04-13T19:11:13.975Z,100.00
2023-04-13T19:13:54.771Z,100.00
2023-04-13T19:16:37.141Z,100.00
2023-04-13T19:19:26.808Z,100.00
2023-04-13T19:22:15.529Z,100.00
2023-04-13T19:25:01.838Z,100.00
2023-04-13T19:27:47.405Z,100.00
2023-04-13T19:30:35.782Z,100.00
2023-04-13T19:33:22.608Z,100.00
2023-04-13T19:36:02.958Z,100.00
2023-04-13T19:38:42.377Z,100.00
2023-04-13T19:41:25.712Z,100.00
2023-04-13T19:44:03.943Z,100.00
2023-04-13T19:46:49.707Z,100.00
2023-04-13T19:49:48.189Z,100.00
2023-04-13T19:52:28.400Z,100.00
2023-04-13T19:55:10.686Z,100.00
2023-04-13T19:57:56.292Z,100.00
2023-04-13T20:00:50.137Z,100.00
2023-04-13T20:03:33.402Z,100.00
2023-04-13T20:06:17.005Z,100.00
2023-04-13T20:09:12.052Z,100.00
2023-04-13T20:11:56.313Z,100.00
2023-04-13T20:14:39.551Z,100.00
2023-04-13T20:17:25.114Z,100.00
2023-04-13T20:20:14.424Z,100.00
2023-04-13T20:22:57.949Z,100.00
2023-04-13T20:25:43.946Z,100.00
2023-04-13T20:28:33.307Z,100.00
2023-04-13T20:31:16.565Z,100.00
2023-04-13T20:34:01.864Z,100.00
2023-04-13T20:36:48.284Z,100.00
2023-04-13T20:39:33.882Z,100.00
2023-04-13T20:42:18.341Z,100.00
2023-04-13T20:45:04.394Z,100.00
2023-04-13T20:47:51.135Z,100.00
2023-04-13T20:50:37.614Z,100.00
2023-04-13T20:53:20.290Z,100.00
2023-04-13T20:56:09.269Z,100.00
2023-04-13T20:58:47.271Z,100.00
2023-04-13T21:01:35.610Z,100.00
2023-04-13T21:04:20.144Z,100.00
2023-04-13T21:07:02.399Z,100.00
2023-04-13T21:09:46.314Z,100.00
2023-04-13T21:12:40.101Z,100.00
2023-04-13T21:15:28.095Z,100.00
2023-04-13T21:18:14.964Z,100.00
2023-04-13T21:20:58.079Z,100.00
2023-04-13T21:23:33.615Z,100.00
2023-04-13T21:26:22.661Z,100.00
2023-04-13T21:29:13.125Z,100.00
2023-04-13T21:32:08.091Z,100.00
2023-04-13T21:34:39.941Z,100.00
2023-04-13T21:37:19.132Z,100.00
2023-04-13T21:40:06.028Z,100.00
2023-04-13T21:42:50.875Z,100.00
2023-04-13T21:45:40.578Z,100.00
2023-04-13T21:48:26.041Z,100.00
2023-04-13T21:51:08.336Z,100.00
2023-04-13T21:53:52.214Z,100.00
2023-04-13T21:56:35.694Z,100.00
2023-04-13T21:59:24.246Z,100.00
2023-04-13T22:02:10.517Z,100.00
2023-04-13T22:04:59.650Z,100.00
2023-04-13T22:07:48.570Z,100.00
2023-04-13T22:10:40.805Z,100.00
2023-04-13T22:13:24.734Z,100.00
2023-04-13T22:16:13.681Z,100.00
2023-04-13T22:18:51.568Z,100.00
2023-04-13T22:21:29.750Z,100.00
2023-04-13T22:24:19.455Z,100.00
2023-04-13T22:26:54.700Z,100.00
2023-04-13T22:29:35.586Z,100.00
2023-04-13T22:32:19.623Z,100.00
2023-04-13T22:34:51.327Z,100.00
2023-04-13T22:37:35.043Z,100.00
2023-04-13T22:40:20.104Z,100.00
2023-04-13T22:43:01.427Z,100.00
2023-04-13T22:45:42.793Z,100.00
2023-04-13T22:48:29.109Z,100.00
2023-04-13T22:51:25.408Z,100.00
2023-04-13T22:54:06.110Z,100.00
2023-04-13T22:56:49.326Z,100.00
2023-04-13T22:59:28.346Z,100.00
2023-04-13T23:02:09.650Z,100.00
2023-04-13T23:04:57.066Z,100.00
2023-04-13T23:07:38.534Z,100.00
2023-04-13T23:10:15.299Z,100.00
2023-04-13T23:12:55.954Z,100.00
2023-04-13T23:15:40.073Z,100.00
2023-04-13T23:18:18.404Z,100.00
2023-04-13T23:21:04.595Z,100.00
2023-04-13T23:23:51.478Z,100.00
2023-04-13T23:26:40.313Z,100.00
2023-04-13T23:29:22.370Z,100.00
2023-04-13T23:32:06.843Z,100.00
2023-04-13T23:34:51.270Z,100.00
2023-04-13T23:37:34.413Z,100.00
2023-04-13T23:40:18.644Z,100.00
2023-04-13T23:43:04.368Z,100.00
2023-04-13T23:45:58.979Z,100.00
2023-04-13T23:48:47.626Z,100.00
2023-04-13T23:51:32.006Z,100.00
2023-04-13T23:54:19.745Z,100.00
2023-04-13T23:57:10.505Z,100.00
